N800FA LIPZ-LIPZ
Flight info
| Callsign | N800FA |
|---|---|
| Flight time | N/A |
| Altitude | 6000 |
| Route | LIPZ/04R CHI9V CHI CHI2W LIPZ/04R |
| Aircraft | AEST/L-SC/1000 |
Departure
| Time | 2026-04-30 17:41 |
|---|---|
| Airport | Venice Marco Polo Airport (LIPZ) |
Arrival
| Time | N/A |
|---|---|
| Airport | Venice Marco Polo Airport (LIPZ) |
| Time | Latitude | Longitude | Altitude | Speed | Heading |
|---|---|---|---|---|---|
| 2026-04-30 17:39 | 45.25828 | 12.42301 | 5989 ft | 226 kts | 193° |
| 2026-04-30 17:41 | 45.14751 | 12.34191 | 6089 ft | 224 kts | 204° |
| 2026-04-30 17:42 | 45.11882 | 12.32387 | 6120 ft | 221 kts | 196° |
| 2026-04-30 17:42 | 45.07638 | 12.29573 | 6162 ft | 224 kts | 199° |
| 2026-04-30 17:43 | 45.04755 | 12.30141 | 6120 ft | 213 kts | 128° |
| 2026-04-30 17:44 | 45.01459 | 12.34048 | 6016 ft | 209 kts | 144° |
| 2026-04-30 17:44 | 44.99757 | 12.38156 | 5989 ft | 189 kts | 31° |
| 2026-04-30 17:46 | 45.01338 | 12.30536 | 6175 ft | 205 kts | 308° |
| 2026-04-30 17:47 | 45.05768 | 12.26332 | 6055 ft | 201 kts | 353° |
| 2026-04-30 17:48 | 45.09916 | 12.28999 | 6038 ft | 179 kts | 88° |
| 2026-04-30 17:48 | 45.09664 | 12.34374 | 6048 ft | 182 kts | 95° |
| 2026-04-30 17:49 | 45.07406 | 12.40260 | 6069 ft | 198 kts | 168° |
| 2026-04-30 17:50 | 45.02550 | 12.35797 | 6140 ft | 218 kts | 223° |
| 2026-04-30 17:51 | 45.01539 | 12.30611 | 5986 ft | 208 kts | 322° |
| 2026-04-30 17:52 | 45.05066 | 12.27349 | 6061 ft | 201 kts | 338° |
| 2026-04-30 17:53 | 45.11075 | 12.23160 | 5058 ft | 214 kts | 306° |
| 2026-04-30 17:54 | 45.14758 | 12.17734 | 4391 ft | 196 kts | 338° |
| 2026-04-30 17:55 | 45.19565 | 12.14943 | 4042 ft | 190 kts | 331° |
| 2026-04-30 17:56 | 45.23560 | 12.09502 | 4070 ft | 205 kts | 317° |
| 2026-04-30 17:57 | 45.26444 | 12.05261 | 4126 ft | 192 kts | 320° |
| 2026-04-30 17:58 | 45.29685 | 12.04777 | 3670 ft | 177 kts | 48° |
| 2026-04-30 17:59 | 45.31526 | 12.10526 | 3143 ft | 160 kts | 57° |
| 2026-04-30 18:00 | 45.35022 | 12.15270 | 3063 ft | 167 kts | 52° |
| 2026-04-30 18:00 | 45.37466 | 12.18210 | 2959 ft | 152 kts | 36° |
| 2026-04-30 18:01 | 45.39016 | 12.20339 | 2918 ft | 170 kts | 54° |